»·PEaware :: SWA146 KDEN-KSLC

SWA146 :: KDEN-KSLC

FLIGHT INFORMATION

Flight Status: Arrived
Operator:
Southwest Airlines
More flights by this operator :: More flights under this callsign
Pilot: Ben F. (2808)
Aircraft: BOEING 737-200
(B732)
More flights by this aircraft type
Origin: KDEN Denver Intl
United States
Destination: KSLC Salt Lake City Intl
United States
More flights between these airports :: More routes between these airports
Route: ROCKI3 EKR SPANE7
File this flight plan on PilotEdge
Remarks: PBN / A1B2 NAV / RNVD1E2A1 REG / N275SB EET / KZLC0032 RMK / SIMBRIEF
Altitude:
(Current/Filed)
32,000ft
Speed:
(Current/Filed)
427kts
Departed: 12-Jan-18 07:36 PM
Arrived: 12-Jan-18 08:49 PM
Distance/Time
Traveled:
339nm/1:13
Distance/Time
To Go:
Arrived

Flight Plot

Page will automatically refresh every two minutes.

Flight plan parsing failed; only flown route is shown


Map Options




Map Legend


Flown Route
Filed Route
Departure Airport
Arrival Airport
Navaid (VOR, NDB)
Fix

Horizontal Profiles

Position Reports

Time Latitude Longitude Heading Altitude Ground
Speed
12-Jan-18 19:12 39.863486 -104.672082 190 5440ft 0kts
12-Jan-18 19:13 39.863486 -104.672082 190 5440ft 0kts
12-Jan-18 19:14 39.863486 -104.672082 190 5440ft 0kts
12-Jan-18 19:15 39.863486 -104.672082 190 5440ft 0kts
12-Jan-18 19:16 39.863486 -104.672082 190 5440ft 0kts
12-Jan-18 19:17 39.863486 -104.672082 190 5440ft 0kts
12-Jan-18 19:18 39.863486 -104.672082 190 5440ft 0kts
12-Jan-18 19:19 39.863486 -104.672082 190 5440ft 0kts
12-Jan-18 19:20 39.863486 -104.672082 190 5440ft 0kts
12-Jan-18 19:21 39.863486 -104.672082 190 5440ft 0kts
12-Jan-18 19:22 39.863486 -104.672082 190 5440ft 0kts
12-Jan-18 19:23 39.863486 -104.672082 190 5440ft 0kts
12-Jan-18 19:24 39.863486 -104.672082 190 5440ft 0kts
12-Jan-18 19:25 39.863486 -104.672082 190 5440ft 0kts
12-Jan-18 19:26 39.863486 -104.672082 190 5440ft 0kts
12-Jan-18 19:27 39.863482 -104.672083 190 5440ft 0kts
12-Jan-18 19:28 39.863887 -104.671981 190 5440ft 2kts
12-Jan-18 19:29 39.864169 -104.671680 270 5440ft 0kts
12-Jan-18 19:30 39.864169 -104.671680 270 5440ft 0kts
12-Jan-18 19:31 39.864175 -104.673658 273 5440ft 15kts
12-Jan-18 19:32 39.864212 -104.679371 289 5440ft 14kts
12-Jan-18 19:33 39.864610 -104.681383 204 5440ft 4kts
12-Jan-18 19:34 39.864141 -104.675460 91 5440ft 21kts
12-Jan-18 19:35 39.864107 -104.667664 90 5440ft 21kts
12-Jan-18 19:36 39.865006 -104.664285 90 5440ft 0kts
12-Jan-18 19:37 39.863867 -104.662241 182 5440ft 17kts
12-Jan-18 19:38 39.860980 -104.661536 88 5440ft 0kts
12-Jan-18 19:39 39.860980 -104.661536 88 5440ft 0kts
12-Jan-18 19:40 39.860980 -104.661536 88 5440ft 0kts
12-Jan-18 19:41 39.859746 -104.660186 181 5440ft 32kts
12-Jan-18 19:42 39.825015 -104.660985 195 6314ft 167kts
12-Jan-18 19:43 39.805060 -104.729679 268 7003ft 268kts
12-Jan-18 19:44 39.813321 -104.823857 307 9882ft 264kts
12-Jan-18 19:45 39.856334 -104.903054 307 11795ft 298kts
12-Jan-18 19:46 39.886868 -104.999768 287 14121ft 309kts
12-Jan-18 19:47 39.913011 -105.102959 287 16142ft 317kts
12-Jan-18 19:48 39.936563 -105.212003 286 18075ft 322kts
12-Jan-18 19:49 39.959837 -105.324452 287 19685ft 327kts
12-Jan-18 19:50 39.983987 -105.442332 286 20186ft 363kts
12-Jan-18 19:51 40.010364 -105.572611 286 21149ft 380kts
12-Jan-18 19:52 40.026356 -105.705101 269 22234ft 390kts
12-Jan-18 19:53 40.022934 -105.842776 268 23271ft 395kts
12-Jan-18 19:54 40.018293 -105.984379 268 24177ft 401kts
12-Jan-18 19:55 40.013320 -106.127515 268 24999ft 407kts
12-Jan-18 19:56 40.008086 -106.273053 268 25774ft 411kts
12-Jan-18 19:57 40.002612 -106.420135 269 26449ft 415kts
12-Jan-18 19:58 40.008121 -106.569221 275 27065ft 419kts
12-Jan-18 19:59 40.014874 -106.714418 274 27601ft 422kts
12-Jan-18 20:00 40.021783 -106.864990 274 28105ft 426kts
12-Jan-18 20:01 40.028550 -107.017616 274 28781ft 423kts
12-Jan-18 20:02 40.035103 -107.169604 274 29388ft 421kts
12-Jan-18 20:03 40.041430 -107.320609 274 29930ft 421kts
12-Jan-18 20:04 40.047540 -107.471923 274 30476ft 420kts
12-Jan-18 20:05 40.053425 -107.621877 274 31169ft 417kts
12-Jan-18 20:06 40.058980 -107.768530 273 31651ft 418kts
12-Jan-18 20:07 40.064487 -107.918474 274 31992ft 421kts
12-Jan-18 20:08 40.071566 -108.071617 274 32000ft 430kts
12-Jan-18 20:09 40.078693 -108.226677 274 31999ft 431kts
12-Jan-18 20:10 40.086148 -108.381240 275 32002ft 432kts
12-Jan-18 20:11 40.093552 -108.537197 274 31998ft 433kts
12-Jan-18 20:12 40.099972 -108.688085 274 32000ft 434kts
12-Jan-18 20:13 40.132595 -108.826987 318 32027ft 426kts
12-Jan-18 20:14 40.179725 -108.964012 291 32007ft 429kts
12-Jan-18 20:15 40.195504 -109.114752 266 32000ft 432kts
12-Jan-18 20:16 40.169996 -109.267512 251 32000ft 435kts
12-Jan-18 20:17 40.131354 -109.415195 267 32001ft 434kts
12-Jan-18 20:18 40.144134 -109.568842 297 32033ft 429kts
12-Jan-18 20:19 40.145814 -109.716223 259 31999ft 434kts
12-Jan-18 20:20 40.140362 -109.836710 274 32003ft 433kts
12-Jan-18 20:21 40.145784 -109.992880 273 32001ft 435kts
12-Jan-18 20:22 40.149875 -110.149531 268 31996ft 437kts
12-Jan-18 20:23 40.147008 -110.306646 269 32000ft 437kts
12-Jan-18 20:24 40.144127 -110.464220 270 32003ft 438kts
12-Jan-18 20:25 40.142604 -110.620219 270 30927ft 428kts
12-Jan-18 20:26 40.141097 -110.765993 270 29083ft 417kts
12-Jan-18 20:27 40.139384 -110.913194 270 27118ft 405kts
12-Jan-18 20:28 40.137540 -111.056328 270 25272ft 392kts
12-Jan-18 20:29 40.135576 -111.195435 269 23431ft 382kts
12-Jan-18 20:30 40.133065 -111.328967 269 20959ft 366kts
12-Jan-18 20:31 40.130495 -111.454522 270 19015ft 351kts
12-Jan-18 20:32 40.143328 -111.579534 294 19094ft 352kts
12-Jan-18 20:33 40.182101 -111.689050 296 17300ft 346kts
12-Jan-18 20:34 40.222739 -111.798934 297 15597ft 334kts
12-Jan-18 20:35 40.262832 -111.905980 297 13883ft 326kts
12-Jan-18 20:36 40.325779 -111.975864 329 13552ft 290kts
12-Jan-18 20:37 40.383745 -112.021471 330 13151ft 288kts
12-Jan-18 20:38 40.437426 -112.053854 352 12136ft 279kts
12-Jan-18 20:39 40.510718 -112.064110 355 10839ft 273kts
12-Jan-18 20:40 40.581186 -112.072164 356 10542ft 238kts
12-Jan-18 20:41 40.638890 -112.078427 356 10572ft 267kts
12-Jan-18 20:42 40.710910 -112.081745 356 10999ft 265kts
12-Jan-18 20:43 40.782146 -112.086363 354 10982ft 245kts
12-Jan-18 20:44 40.845984 -112.091545 354 10991ft 224kts
12-Jan-18 20:45 40.910098 -112.097594 354 9720ft 236kts
12-Jan-18 20:46 40.973329 -112.105896 354 8297ft 223kts
12-Jan-18 20:47 41.033454 -112.116165 354 6459ft 221kts
12-Jan-18 20:48 41.081175 -112.108053 54 6047ft 230kts
12-Jan-18 20:49 41.051646 -112.026171 141 5969ft 235kts
12-Jan-18 20:50 40.997937 -111.999856 171 6019ft 199kts
12-Jan-18 20:51 40.953191 -111.994058 172 5984ft 192kts
12-Jan-18 20:52 40.901636 -111.987921 173 6007ft 186kts
12-Jan-18 20:53 40.853252 -111.982296 174 5157ft 155kts
12-Jan-18 20:54 40.813683 -111.977737 175 4391ft 146kts
12-Jan-18 20:55 40.786896 -111.974724 186 4236ft 25kts
12-Jan-18 20:56 40.785059 -111.976471 345 4236ft 14kts
12-Jan-18 20:57 40.788495 -111.977163 286 4236ft 7kts
12-Jan-18 20:58 40.788481 -111.977950 267 4236ft 0kts

Navigation Log

Ident Type
Flight plan parsing failed, navigation log unavailable